Muddy Creek, North Carolina
Current Conditions -  °F | °C
As of 12:54 PM on Monday 24 Nov 2014 (Local Time) from KINT Reporting Station
Scattered Clouds Scattered Clouds  
Wind Chill: 70°   Ceiling: Unl
Heat Index: 70°   Visibility: 10mi
Dew Point: 53°   Wind: 14mph
Humidity: 55%   Direction: 230°SW
Pressure: 29.74"   Gusts: 22mph
Location:  36.0595°N, 80.3192°W
Report Text: KINT 241754Z 23012G19KT 10SM FEW033 SCT110 21/12 A2974 RMK AO2 SLP063 T02110117 10211 20150 58012
Loading
Personal Weather Stations






























Interactive Weather Map New forecast layout! Learn more

10-Day Weather Forecast

Advertisements
Track Severe Weather on mobile